Terminal Aerodrome Forecast
Issued by NWS

Home | Current Version | Previous Version | Text Only | Print | Product List | Glossary On
Versions: 1 2 3 4 5 6 7 8 9 10 11 12 13 14 15 16 17
000
FTUS41 KCAR 300520
TAFFVE
TAF
KFVE 300520Z 3006/3106 13005KT P6SM SCT250
     FM301000 14006KT 3SM -SN SCT010 BKN015 OVC070
     FM301300 14006KT 1SM -SN OVC010
     FM301800 14007KT 3/4SM -SN BR VV002
     FM310000 02010KT 1/2SM SN FG VV002=

USA.gov is the U.S. government's official web portal to all federal, state and local government web resources and services.